Last 30 Days

Top of 15 - 9,047ft

Hourly Data | America/Los_Angeles
as of 4/17/24 7:34 AM PDT
Date & Time Temp (°F) WindChill (°F) RH (%) Dew Pt (°F) Wet Bulb (°F) Wind Dir (°) Wind Spd (mph) Wind Gust (mph) Wind Gst Dir (°) Daily Min Temp (°F) Daily Max Temp (°F) Daily Max Wind (mph)
4/17/24 - 0700 42.2 40.8 25 8.7 31.8 W | 280 3.0 9.5 NW | 323 40.1 43.7 12.9
4/17/24 - 0600 42.0 - 24 7.7 31.6 WNW | 283 2.1 12.9 WSW | 251 40.1 43.7 12.9
4/17/24 - 0500 41.6 - 26 8.8 31.5 NW | 323 1.3 7.0 NNW | 341 40.1 43.7 11.1
4/17/24 - 0400 41.4 39.3 30 12.0 32.0 NW | 307 3.6 9.0 WNW | 292 40.1 43.7 11.1
4/17/24 - 0300 42.9 - 26 9.9 32.5 WNW | 293 2.6 10.5 W | 266 40.1 43.7 11.1
4/17/24 - 0200 42.0 39.6 29 11.9 32.3 WNW | 297 4.0 11.1 W | 281 40.1 43.6 11.1
4/17/24 - 0100 42.9 39.6 28 11.9 32.8 WNW | 293 5.5 14.4 WNW | 302 28.3 52.1 27.3
4/17/24 - 0000 43.4 41.0 27 11.6 33.1 WNW | 297 4.3 13.5 WNW | 298 28.3 52.1 27.3
4/16/24 - 2300 44.0 42.0 27 12.1 33.5 WNW | 303 3.9 10.9 WNW | 284 28.3 52.1 27.3
4/16/24 - 2200 43.5 41.4 34 16.6 34.2 W | 279 4.0 13.1 W | 273 28.3 52.1 27.3
4/16/24 - 2100 42.4 39.0 42 20.9 34.6 W | 265 5.5 14.0 W | 277 28.3 52.1 27.3
4/16/24 - 2000 41.6 37.0 47 23.0 34.7 W | 276 7.2 18.1 WNW | 292 28.3 52.1 27.3
4/16/24 - 1900 42.2 39.0 47 23.2 35.1 W | 273 5.0 12.4 W | 280 28.3 52.1 27.3
4/16/24 - 1800 43.0 39.1 46 23.6 35.6 W | 262 6.3 20.9 WSW | 255 28.3 52.1 27.3
4/16/24 - 1700 44.2 40.0 41 21.9 35.9 W | 264 7.6 19.8 W | 275 28.3 52.1 27.3
4/16/24 - 1600 44.8 39.6 36 19.8 35.6 W | 269 10.0 27.3 W | 277 28.3 52.1 27.3
4/16/24 - 1500 46.0 40.9 29 15.5 35.3 W | 269 10.7 24.3 WSW | 256 28.3 52.1 24.3
4/16/24 - 1400 46.9 42.6 27 14.3 35.6 W | 267 8.9 21.0 WNW | 291 28.3 52.1 21.0
4/16/24 - 1300 47.8 45.0 21 10.0 35.3 W | 259 6.3 20.3 W | 281 28.3 52.1 20.3
4/16/24 - 1200 48.0 - 29 17.0 36.7 ESE | 113 1.5 7.0 ESE | 111 28.3 52.1 7.1
4/16/24 - 1100 44.8 - 36 19.4 35.6 ESE | 117 2.0 6.8 ESE | 105 28.3 46.9 7.1
4/16/24 - 1000 42.1 - 45 22.1 34.7 ESE | 122 1.6 5.6 ESE | 105 28.3 43.8 7.1
4/16/24 - 0900 40.0 - 51 23.3 33.8 SSE | 168 1.0 3.3 SW | 218 28.3 43.1 7.1
4/16/24 - 0800 36.7 - 59 23.6 31.9 SSW | 210 0.8 3.0 SW | 218 28.3 40.1 7.1
4/16/24 - 0700 30.3 27.0 69 21.4 27.3 WNW | 286 3.3 6.7 WNW | 289 28.3 34.5 7.1
4/16/24 - 0600 29.4 - 77 23.0 27.2 WNW | 300 2.4 6.3 WNW | 294 28.3 31.7 7.1
4/16/24 - 0500 29.2 25.6 77 23.0 27.0 WNW | 295 3.3 7.1 WNW | 292 28.3 31.7 7.1
4/16/24 - 0400 29.6 - 75 22.6 27.2 WNW | 298 1.9 4.1 NW | 314 29.2 31.7 6.4
4/16/24 - 0300 30.0 - 72 22.0 27.2 WNW | 296 1.9 4.7 WNW | 295 29.2 31.7 6.4
4/16/24 - 0200 30.5 - 70 22.0 27.6 NW | 312 2.7 6.4 WNW | 295 29.2 31.7 6.4
4/16/24 - 0100 30.8 - 70 22.0 27.8 NNW | 332 1.4 4.0 NW | 304 20.4 45.3 17.2
4/16/24 - 0000 31.6 - 68 22.3 28.4 N | 352 0.8 3.3 NE | 46 20.4 45.3 17.2
4/15/24 - 2300 32.0 - 66 22.0 28.6 NNW | 327 1.1 3.3 NW | 313 20.4 45.3 17.2
4/15/24 - 2200 32.2 - 61 20.4 28.2 NW | 325 1.5 4.3 NW | 313 20.4 45.3 17.2
4/15/24 - 2100 34.1 - 53 18.8 29.0 NW | 322 1.8 7.9 WNW | 284 20.4 45.3 17.2
4/15/24 - 2000 36.3 - 47 18.0 30.2 NNW | 336 2.6 12.8 NE | 42 20.4 45.3 17.2
4/15/24 - 1900 39.5 37.4 36 14.4 31.3 NE | 55 3.3 9.5 ENE | 57 20.4 45.3 17.2
4/15/24 - 1800 42.7 39.7 29 12.5 32.9 ENE | 72 5.0 15.6 E | 93 20.4 45.3 17.2
4/15/24 - 1700 43.2 40.9 25 10.0 32.7 ENE | 69 4.2 13.5 ENE | 73 20.4 45.3 17.2
4/15/24 - 1600 43.6 40.8 21 5.6 32.2 E | 86 4.9 13.5 ESE | 113 20.4 45.3 17.2
4/15/24 - 1500 43.6 40.5 17 1.8 31.7 E | 82 5.2 14.4 E | 81 20.4 45.3 17.2
4/15/24 - 1400 42.2 38.8 18 1.3 30.8 E | 81 5.4 14.6 ENE | 63 20.4 43.5 17.2
4/15/24 - 1300 40.1 37.3 20 2.2 29.7 E | 101 4.2 14.3 ESE | 102 20.4 43.0 17.2
4/15/24 - 1200 38.5 36.2 32 11.1 30.1 SE | 130 3.4 10.3 ESE | 106 20.4 40.1 17.2
4/15/24 - 1100 34.4 - 42 13.4 28.0 SSE | 147 2.0 6.4 SSE | 164 20.4 37.5 17.2
4/15/24 - 1000 30.0 - 60 17.7 26.1 SE | 128 2.4 7.4 ESE | 117 20.4 33.5 17.2
4/15/24 - 0900 25.2 20.4 77 18.9 23.2 ESE | 109 3.9 11.5 E | 96 20.4 28.6 17.2
4/15/24 - 0800 22.9 - 87 19.6 21.8 E | 93 - - NNE | 29 20.4 24.2 17.2
4/15/24 - 0700 21.9 - 88 18.8 20.9 E | 88 2.4 8.1 E | 89 20.4 23.1 17.2
4/15/24 - 0600 21.5 - 81 16.6 20.1 ENE | 76 1.4 5.6 ENE | 71 20.4 23.1 17.2
4/15/24 - 0500 22.0 17.4 72 14.3 19.8 WNW | 299 3.3 9.2 WNW | 288 20.4 23.1 17.2
4/15/24 - 0400 21.9 - 69 13.1 19.5 WNW | 297 2.1 8.6 W | 276 20.4 23.1 17.2
4/15/24 - 0300 21.6 14.1 75 15.0 19.7 W | 278 5.7 17.2 WNW | 290 21.1 22.2 17.2
4/15/24 - 0200 21.6 14.1 79 16.1 19.9 WNW | 284 5.7 14.1 NW | 306 21.1 22.2 14.1
4/15/24 - 0100 21.3 12.6 86 17.7 20.2 WNW | 282 7.0 18.0 W | 266 15.9 28.8 28.1
4/15/24 - 0000 21.8 12.6 82 17.0 20.3 W | 268 7.8 22.6 W | 259 15.9 28.8 28.1
4/14/24 - 2300 22.5 12.0 77 16.4 20.7 W | 264 10.0 28.1 W | 278 15.9 28.8 28.1
4/14/24 - 2200 22.0 14.2 83 17.6 20.7 W | 276 6.2 23.3 W | 260 15.9 28.8 27.2
4/14/24 - 2100 21.8 15.1 85 18.0 20.6 W | 270 5.0 19.5 WSW | 247 15.9 28.8 27.2
4/14/24 - 2000 22.0 13.0 82 17.2 20.6 W | 269 7.6 19.3 W | 279 15.9 28.8 27.2
4/14/24 - 1900 22.3 12.5 78 16.5 20.6 W | 266 8.7 21.2 WSW | 255 15.9 28.8 27.2
4/14/24 - 1800 23.7 13.3 74 16.4 21.5 W | 263 10.2 24.0 WSW | 238 15.9 28.8 27.2
4/14/24 - 1700 25.7 15.7 71 17.6 23.2 WSW | 253 10.5 23.6 WNW | 283 15.9 28.8 27.2
4/14/24 - 1600 27.1 17.3 67 17.6 24.1 WSW | 258 10.6 25.2 W | 263 15.9 28.8 27.2
4/14/24 - 1500 27.2 18.8 63 16.2 23.8 WSW | 247 8.2 24.4 W | 281 15.9 28.8 27.2
4/14/24 - 1400 26.7 18.5 63 15.9 23.5 W | 263 7.9 23.1 WNW | 286 15.9 28.2 27.2
4/14/24 - 1300 26.0 18.5 65 15.8 23.0 W | 270 6.8 20.4 W | 263 15.9 27.8 27.2
4/14/24 - 1200 25.6 - 70 17.1 23.0 S | 174 1.8 8.9 WNW | 290 15.9 27.2 27.2
4/14/24 - 1100 24.5 - 73 17.0 22.2 SSW | 202 2.3 10.5 WSW | 239 15.9 25.7 27.2
4/14/24 - 1000 23.5 - 74 16.4 21.4 SE | 141 0.5 3.9 NW | 316 15.9 24.6 27.2
4/14/24 - 0900 20.6 - 79 15.2 19.1 SW | 217 0.4 3.0 SW | 229 15.9 22.8 27.2
4/14/24 - 0800 19.6 - 77 13.6 18.0 WNW | 301 1.4 5.1 WNW | 286 15.9 20.1 27.2
4/14/24 - 0700 18.8 13.4 76 12.6 17.1 W | 264 3.6 9.7 WSW | 253 15.9 20.1 27.2
4/14/24 - 0600 17.0 6.4 74 10.2 15.4 W | 259 8.2 21.0 WSW | 238 15.9 17.7 27.2
4/14/24 - 0500 16.8 4.4 70 8.6 14.9 W | 264 10.8 25.2 SW | 233 15.9 17.5 27.2
4/14/24 - 0400 16.8 4.6 71 9.0 15.0 W | 266 10.4 27.2 W | 279 15.9 17.5 27.2
4/14/24 - 0300 16.6 4.6 76 10.4 15.1 W | 270 10.1 26.1 WNW | 293 15.9 17.5 26.1
4/14/24 - 0200 16.7 5.2 83 12.4 15.6 W | 274 9.5 23.4 W | 259 16.1 17.3 23.4
4/14/24 - 0100 17.4 6.7 82 12.9 16.3 W | 272 8.6 28.5 WNW | 287 16.9 39.9 35.8
4/14/24 - 0000 18.5 8.3 75 11.9 16.8 W | 263 8.2 20.4 WSW | 255 17.4 39.9 35.8
4/13/24 - 2300 18.9 6.2 77 12.9 17.3 WSW | 258 12.2 33.1 WSW | 242 18.5 39.9 35.8
4/13/24 - 2200 19.4 7.7 81 14.4 18.0 WSW | 258 10.6 29.8 WSW | 242 19.0 39.9 35.8
4/13/24 - 2100 19.4 8.0 82 14.7 18.0 W | 272 10.0 30.2 NW | 306 19.0 39.9 35.8
4/13/24 - 2000 20.2 8.4 80 15.0 18.8 W | 261 11.4 31.4 W | 265 19.3 39.9 35.8
4/13/24 - 1900 20.0 7.6 81 15.0 18.6 WSW | 254 12.2 29.3 W | 275 19.3 39.9 35.8
4/13/24 - 1800 21.9 9.8 83 17.6 20.6 W | 267 12.5 35.8 WNW | 286 19.3 39.9 35.8
4/13/24 - 1700 28.2 19.8 82 23.5 26.6 W | 262 8.6 26.7 WNW | 292 27.5 39.9 28.1
4/13/24 - 1600 32.4 24.5 62 20.5 28.4 W | 275 9.6 23.2 W | 278 29.1 39.9 28.1
4/13/24 - 1500 34.5 28.5 55 19.8 29.6 WSW | 257 7.0 20.4 WSW | 249 30.1 39.9 28.1
4/13/24 - 1400 33.5 25.9 61 21.4 29.3 W | 262 9.3 22.0 WNW | 290 30.1 39.9 28.1
4/13/24 - 1300 36.3 29.1 49 18.8 30.4 WSW | 251 10.0 24.2 SW | 228 30.1 39.9 28.1
4/13/24 - 1200 38.2 31.2 39 15.3 30.8 WSW | 251 10.4 28.1 WSW | 238 30.1 39.9 28.1
4/13/24 - 1100 38.2 31.7 35 12.8 30.2 W | 263 9.3 26.0 W | 267 30.1 39.7 26.0
4/13/24 - 1000 38.1 32.8 32 10.6 29.8 WSW | 250 7.2 19.9 WSW | 248 30.1 39.3 20.9
4/13/24 - 0900 36.4 31.3 35 11.4 28.8 WSW | 247 6.1 16.4 WSW | 246 30.1 37.9 20.9
4/13/24 - 0800 34.1 28.3 39 11.8 27.5 WSW | 256 6.6 15.0 W | 280 30.1 37.0 20.9
4/13/24 - 0700 31.9 24.6 45 13.1 26.3 W | 274 8.2 16.1 WNW | 297 30.1 37.0 20.9
4/13/24 - 0600 31.5 23.4 50 14.9 26.5 W | 270 9.6 19.9 W | 261 30.1 37.0 20.9
4/13/24 - 0500 33.7 26.2 34 8.6 26.6 W | 265 9.4 19.6 WNW | 286 33.0 37.0 20.9
4/13/24 - 0400 35.1 29.1 30 6.4 27.1 WSW | 254 7.1 19.9 SW | 226 34.0 37.0 20.9
4/13/24 - 0300 36.2 32.2 28 6.3 27.8 WSW | 250 4.7 14.4 W | 268 35.1 37.0 20.9
4/13/24 - 0200 36.0 31.1 34 10.6 28.5 WSW | 248 5.9 20.9 SSW | 207 35.1 36.8 20.9
4/13/24 - 0100 35.3 30.6 46 16.6 29.3 WSW | 241 5.5 21.1 S | 184 31.9 46.3 37.9
4/13/24 - 0000 33.9 26.5 62 22.2 29.8 WSW | 253 9.2 25.7 W | 263 31.9 46.3 37.9
4/12/24 - 2300 32.6 24.4 67 23.0 29.2 WSW | 256 10.1 25.8 WSW | 245 31.9 46.3 37.9
4/12/24 - 2200 32.4 25.7 66 22.3 28.9 W | 259 7.4 24.8 W | 280 32.0 46.3 37.9
4/12/24 - 2100 33.3 27.8 66 23.0 29.7 W | 261 6.0 23.1 W | 267 32.4 46.3 37.9
4/12/24 - 2000 34.9 29.0 62 23.4 30.8 W | 264 6.9 20.7 SW | 226 34.0 46.3 37.9
4/12/24 - 1900 36.5 30.3 57 22.5 31.6 W | 264 8.1 27.6 NW | 314 35.9 46.3 37.9
4/12/24 - 1800 37.0 31.6 61 24.9 32.5 WSW | 258 6.9 31.0 NNE | 32 36.6 46.3 37.9
4/12/24 - 1700 37.4 30.7 68 27.9 33.8 W | 265 9.5 37.9 WSW | 249 36.7 46.3 37.9
4/12/24 - 1600 39.3 32.5 63 27.8 34.8 W | 262 10.5 32.0 W | 265 38.2 46.3 32.0
4/12/24 - 1500 41.1 35.9 54 25.7 35.2 W | 259 8.0 27.7 S | 186 38.2 46.3 29.2
4/12/24 - 1400 41.6 37.5 51 24.8 35.2 W | 269 6.3 26.2 SW | 236 38.2 46.3 29.2
4/12/24 - 1300 42.0 38.0 51 25.2 35.6 WSW | 257 6.4 29.2 NW | 308 38.2 46.3 29.2
4/12/24 - 1200 41.7 37.4 49 23.7 35.0 WSW | 253 6.6 24.3 W | 277 38.2 46.3 24.3
4/12/24 - 1100 43.2 39.3 46 23.6 35.7 WSW | 254 6.4 19.9 WSW | 258 38.2 46.3 23.6
4/12/24 - 1000 44.6 40.1 41 22.5 36.2 WSW | 243 8.1 23.6 W | 260 38.2 46.3 23.6
4/12/24 - 0900 43.1 40.3 45 23.4 35.6 WSW | 238 4.8 21.4 WSW | 250 38.2 44.4 21.4
4/12/24 - 0800 40.3 36.7 51 23.4 34.1 W | 260 5.3 17.2 W | 277 38.2 42.0 17.2
4/12/24 - 0700 39.9 37.2 50 22.9 33.7 WSW | 257 4.0 15.6 WSW | 247 38.2 41.9 17.1
4/12/24 - 0600 39.2 35.4 49 21.5 32.9 W | 265 5.3 17.1 WNW | 282 38.2 41.9 17.1
4/12/24 - 0500 39.4 36.4 49 22.1 33.2 W | 277 4.3 12.3 WSW | 251 38.2 41.9 16.3
4/12/24 - 0400 40.0 36.2 44 19.7 32.9 WNW | 288 5.4 16.3 W | 275 38.9 41.9 16.3
4/12/24 - 0300 40.3 36.6 40 18.1 32.6 WNW | 285 5.3 13.9 WSW | 248 38.9 41.9 13.9
4/12/24 - 0200 41.0 37.2 39 17.8 33.0 W | 276 5.7 11.5 WNW | 290 40.0 41.9 11.5
4/12/24 - 0100 41.2 36.4 34 15.1 32.5 W | 277 7.2 12.9 W | 277 36.2 54.3 25.0
4/12/24 - 0000 40.8 37.3 35 15.4 32.3 WNW | 283 5.2 13.2 W | 260 36.2 54.3 25.0
4/11/24 - 2300 41.2 38.2 44 21.0 33.9 WNW | 286 4.5 11.3 WSW | 256 36.2 54.3 25.0
4/11/24 - 2200 41.8 40.0 48 23.5 34.9 W | 279 3.3 12.0 W | 260 36.2 54.3 25.0
4/11/24 - 2100 42.0 40.5 48 23.8 35.1 WNW | 286 3.1 8.5 WNW | 294 36.2 54.3 25.0
4/11/24 - 2000 43.4 40.7 37 18.9 34.6 WNW | 298 4.6 17.2 NNW | 341 36.2 54.3 25.0
4/11/24 - 1900 44.5 42.6 33 17.2 34.8 WNW | 297 3.9 24.5 NW | 321 36.2 54.3 25.0
4/11/24 - 1800 46.7 43.3 31 17.8 36.2 WNW | 290 6.7 23.8 NW | 325 36.2 54.3 25.0
4/11/24 - 1700 48.3 45.9 31 18.8 37.3 WNW | 289 5.6 21.6 WNW | 290 36.2 54.3 25.0
4/11/24 - 1600 49.5 48.2 31 20.0 38.2 WNW | 283 4.1 25.0 NW | 318 36.2 54.3 25.0
4/11/24 - 1500 51.0 - 26 17.1 38.3 WNW | 292 6.8 18.6 WNW | 284 36.2 54.3 18.6
4/11/24 - 1400 51.5 - 23 14.5 38.0 WNW | 284 5.3 15.9 W | 276 36.2 54.3 15.9
4/11/24 - 1300 51.6 - 22 13.9 37.9 W | 274 3.5 13.5 WNW | 299 36.2 54.3 13.5
4/11/24 - 1200 51.4 - 24 15.3 38.1 SSE | 151 2.7 8.7 SSE | 165 36.2 54.3 9.8
4/11/24 - 1100 49.4 - 25 15.1 37.1 ESE | 117 2.3 6.2 SSE | 162 36.2 51.2 9.8
4/11/24 - 1000 48.0 - 29 17.1 36.7 ESE | 120 1.1 4.9 SSE | 147 36.2 49.9 9.8
4/11/24 - 0900 47.8 - 28 16.3 36.4 SSE | 148 0.7 5.3 W | 274 36.2 49.6 9.8
4/11/24 - 0800 45.9 - 29 15.4 35.2 WSW | 255 2.4 8.2 W | 263 36.2 48.1 9.8
4/11/24 - 0700 40.1 38.0 37 15.7 32.0 W | 281 3.4 7.3 WNW | 282 36.2 42.3 9.8
4/11/24 - 0600 39.2 37.3 40 17.0 31.8 WNW | 297 3.2 9.8 W | 265 36.2 40.6 9.8
4/11/24 - 0500 38.5 35.5 45 18.8 31.8 WNW | 290 4.1 7.0 WNW | 282 36.2 39.5 9.1
4/11/24 - 0400 38.0 33.8 48 20.3 31.8 WNW | 288 5.4 9.1 W | 277 36.2 39.1 9.1
4/11/24 - 0300 37.6 35.2 48 19.7 31.5 WNW | 296 3.4 8.4 WNW | 285 36.2 39.1 8.4
4/11/24 - 0200 37.9 - 47 19.3 31.5 NW | 310 2.1 6.9 W | 279 36.9 38.8 6.9
4/11/24 - 0100 38.5 - 47 20.2 32.1 NW | 305 1.7 3.6 NW | 308 33.2 54.1 16.5
4/11/24 - 0000 39.9 - 45 20.3 33.0 NW | 308 2.6 6.0 NW | 317 33.2 54.1 16.5
4/10/24 - 2300 40.1 - 44 20.0 33.0 WNW | 303 2.4 4.9 WNW | 302 33.2 54.1 16.5
4/10/24 - 2200 41.3 38.8 43 20.3 33.8 WNW | 292 4.1 10.8 WNW | 282 33.2 54.1 16.5
4/10/24 - 2100 43.6 40.8 36 18.1 34.6 WNW | 298 4.9 14.5 W | 264 33.2 54.1 16.5
4/10/24 - 2000 44.4 40.1 34 17.4 34.8 W | 275 7.5 16.5 W | 275 33.2 54.1 16.5
4/10/24 - 1900 45.2 41.7 34 18.6 35.6 W | 262 6.5 14.6 N | 10 33.2 54.1 16.5
4/10/24 - 1800 46.1 43.2 34 19.6 36.3 W | 267 5.7 12.8 WSW | 256 33.2 54.1 16.5
4/10/24 - 1700 47.4 44.3 32 19.2 36.9 W | 267 6.7 15.7 WNW | 287 33.2 54.1 16.5
4/10/24 - 1600 48.3 45.0 30 18.4 37.2 W | 264 7.3 15.8 WSW | 247 33.2 54.1 16.5
4/10/24 - 1500 48.8 45.9 28 17.3 37.2 W | 266 6.7 16.5 WNW | 288 33.2 54.1 16.5
4/10/24 - 1400 51.0 - 23 14.3 37.7 SW | 234 3.2 14.8 NW | 305 33.2 54.1 14.8
4/10/24 - 1300 49.9 - 23 13.4 37.0 SSE | 154 1.7 9.6 ESE | 114 33.2 52.8 9.6
4/10/24 - 1200 47.7 - 21 9.3 35.1 SE | 138 2.0 8.3 SE | 137 33.2 49.7 8.3
4/10/24 - 1100 45.9 - 31 17.0 35.6 SE | 128 1.8 6.9 SE | 145 33.2 47.5 8.1
4/10/24 - 1000 43.8 - 34 17.2 34.4 SE | 134 1.8 5.3 SE | 145 33.2 45.4 8.1
4/10/24 - 0900 42.3 - 35 16.4 33.4 SSE | 152 0.8 4.2 SE | 142 33.2 44.5 8.1
4/10/24 - 0800 41.0 - 36 16.0 32.6 SE | 133 0.1 1.6 SSE | 151 33.2 43.6 8.1
4/10/24 - 0700 34.9 - 46 16.0 28.9 NW | 307 0.0 0.5 NW | 306 33.2 37.0 8.1
4/10/24 - 0600 34.3 - 46 15.8 28.4 NNW | 341 0.3 2.4 NW | 316 33.2 36.6 8.1
4/10/24 - 0500 35.0 - 45 15.8 28.9 NW | 310 1.9 7.6 W | 275 33.9 36.6 8.1
4/10/24 - 0400 35.1 - 46 16.2 29.0 WNW | 294 1.8 5.1 WNW | 295 33.9 36.6 8.1
4/10/24 - 0300 35.4 - 45 16.4 29.2 WNW | 300 2.5 7.2 WNW | 293 33.9 36.6 8.1
4/10/24 - 0200 34.8 30.8 47 16.7 29.0 WNW | 290 4.6 8.1 WNW | 284 33.9 36.6 8.1
4/10/24 - 0100 34.8 31.1 46 16.1 28.8 WNW | 291 4.2 7.7 W | 273 19.4 49.9 14.9
4/10/24 - 0000 34.3 - 48 16.5 28.6 NW | 313 2.6 9.3 WNW | 284 19.4 49.9 14.9
4/9/24 - 2300 35.0 - 46 16.4 29.0 NNW | 338 0.6 2.3 NNW | 330 19.4 49.9 14.9
4/9/24 - 2200 36.1 - 43 15.9 29.6 NW | 326 2.3 6.6 NW | 317 19.4 49.9 14.9
4/9/24 - 2100 38.2 - 40 16.2 31.0 WNW | 301 2.8 5.6 WNW | 288 19.4 49.9 14.9
4/9/24 - 2000 39.6 - 38 15.8 31.7 N | 7 2.0 7.3 NE | 43 19.4 49.9 14.9
4/9/24 - 1900 40.9 - 35 15.1 32.3 NNE | 33 1.6 5.8 E | 93 19.4 49.9 14.9
4/9/24 - 1800 45.3 44.0 27 13.5 34.5 NE | 50 3.4 11.6 E | 85 19.4 49.9 14.9
4/9/24 - 1700 47.7 46.3 23 12.0 35.5 ENE | 66 3.9 10.7 E | 81 19.4 49.9 14.9
4/9/24 - 1600 47.6 45.7 21 9.5 35.1 ENE | 70 4.6 12.5 ENE | 73 19.4 49.4 14.9
4/9/24 - 1500 47.2 45.7 19 6.9 34.4 E | 79 3.9 14.9 E | 95 19.4 49.4 14.9
4/9/24 - 1400 46.2 44.9 21 8.1 34.0 ESE | 102 3.5 11.7 ESE | 102 19.4 48.8 11.7
4/9/24 - 1300 45.3 - 21 7.5 33.4 SE | 145 2.4 7.5 ESE | 112 19.4 48.8 7.5
4/9/24 - 1200 42.4 - 17 0.6 30.8 SSE | 150 1.7 6.9 SSE | 160 19.4 44.3 6.9
4/9/24 - 1100 40.0 - 15 -4.1 28.9 SE | 138 1.5 6.0 SSE | 164 19.4 41.5 6.7
4/9/24 - 1000 37.8 - 14 -7.6 27.1 SSE | 149 1.2 4.4 SSE | 160 19.4 40.8 6.7
4/9/24 - 0900 36.9 - 13 -9.8 26.4 S | 189 1.2 3.8 S | 190 19.4 40.0 6.7
4/9/24 - 0800 31.9 - 15 -10.3 23.1 SW | 234 2.2 6.7 W | 266 19.4 34.8 6.7
4/9/24 - 0700 26.2 - 17 -12.3 19.1 W | 278 2.2 5.2 WNW | 282 19.4 28.6 6.7
4/9/24 - 0600 26.7 - 12 -19.2 19.0 WNW | 295 0.9 3.2 WNW | 297 19.4 27.4 6.7
4/9/24 - 0500 25.6 - 15 -15.9 18.4 WNW | 301 1.2 4.6 WNW | 293 19.4 26.7 6.7
4/9/24 - 0400 24.4 20.1 20 -11.1 17.8 WNW | 288 3.4 5.6 W | 280 19.4 25.6 6.7
4/9/24 - 0300 22.8 18.3 40 1.4 18.1 WNW | 293 3.3 6.7 W | 279 19.4 25.0 6.7
4/9/24 - 0200 20.3 - 61 9.2 17.5 WNW | 286 1.6 4.6 WNW | 285 19.4 20.8 4.6
4/9/24 - 0100 21.5 - 59 9.4 18.4 WNW | 302 1.3 3.3 NW | 319 11.8 35.1 18.5
4/9/24 - 0000 21.1 - 60 9.2 18.1 N | 352 1.0 6.3 NNE | 15 11.8 35.1 18.5
4/8/24 - 2300 22.0 - 58 9.7 18.9 NE | 44 0.9 6.5 ESE | 110 11.8 35.1 18.5
4/8/24 - 2200 23.4 - 55 9.7 19.8 NE | 48 1.6 9.5 NE | 36 11.8 35.1 18.5
4/8/24 - 2100 23.8 - 51 8.1 19.8 NNE | 33 0.9 6.2 ENE | 68 11.8 35.1 18.5
4/8/24 - 2000 27.0 22.8 46 9.1 22.2 ENE | 62 3.6 14.3 E | 92 11.8 35.1 18.5
4/8/24 - 1900 28.8 22.4 40 7.8 23.2 NE | 56 6.1 17.6 ESE | 103 11.8 35.1 18.5
4/8/24 - 1800 31.7 25.8 33 5.5 24.8 ENE | 58 6.1 15.7 E | 83 11.8 35.1 18.5
4/8/24 - 1700 33.0 27.0 30 4.8 25.6 NE | 52 6.7 16.4 ENE | 77 11.8 35.1 18.5
4/8/24 - 1600 33.4 28.2 34 7.8 26.3 ENE | 71 5.6 17.5 E | 90 11.8 35.1 18.5
4/8/24 - 1500 32.2 26.1 34 7.2 25.4 ENE | 77 6.4 15.3 ENE | 60 11.8 34.1 18.5
4/8/24 - 1400 30.0 24.2 37 7.1 23.9 ENE | 74 5.6 17.8 E | 81 11.8 32.2 18.5
4/8/24 - 1300 28.6 21.9 43 8.9 23.3 ENE | 63 6.4 18.4 E | 94 11.8 30.8 18.5
4/8/24 - 1200 25.5 17.8 50 9.6 21.3 ENE | 60 6.8 17.0 ENE | 74 11.8 27.9 18.5
4/8/24 - 1100 25.0 17.5 52 9.9 21.0 ENE | 65 6.4 17.7 E | 81 11.8 27.1 18.5
4/8/24 - 1000 22.9 15.0 57 10.1 19.6 ENE | 73 6.5 18.5 E | 98 11.8 24.0 18.5
4/8/24 - 0900 21.2 13.0 67 11.8 18.8 E | 88 6.5 15.0 ESE | 102 11.8 23.1 15.0
4/8/24 - 0800 17.8 - 78 12.1 16.3 ESE | 122 2.9 12.8 ESE | 114 11.8 20.0 14.5
4/8/24 - 0700 13.3 - 89 10.7 12.8 ESE | 103 0.3 2.9 ESE | 102 11.8 16.1 14.5
4/8/24 - 0600 14.1 - 88 11.1 13.4 E | 100 1.6 10.7 ENE | 75 12.0 16.1 14.5
4/8/24 - 0500 15.2 8.4 87 12.0 14.4 ENE | 57 4.2 14.5 ENE | 76 12.3 16.1 14.5
4/8/24 - 0400 14.7 - 84 10.6 13.8 E | 100 1.8 9.6 E | 84 12.3 16.1 9.6
4/8/24 - 0300 13.8 - 81 9.0 12.8 E | 87 1.2 5.2 SE | 138 12.3 16.1 7.4
4/8/24 - 0200 15.2 - 79 9.8 13.9 NE | 49 1.5 7.4 NNE | 33 13.8 16.1 7.4
4/8/24 - 0100 16.6 - 77 10.7 15.2 ENE | 71 1.9 9.6 ENE | 78 15.8 31.8 20.7
4/8/24 - 0000 17.6 - 82 13.0 16.4 ENE | 72 2.7 9.4 NE | 48 17.1 31.8 20.7
4/7/24 - 2300 18.0 12.9 86 14.6 17.1 ENE | 68 3.4 11.6 N | 8 17.2 31.8 20.7
4/7/24 - 2200 17.8 - 89 15.1 17.1 ENE | 64 1.1 7.4 NE | 44 17.2 31.8 20.7
4/7/24 - 2100 18.1 - 89 15.4 17.3 E | 79 2.9 13.5 E | 81 17.6 31.8 20.7
4/7/24 - 2000 19.5 11.5 92 17.4 18.8 ENE | 60 5.8 20.7 E | 86 18.7 31.8 20.7
4/7/24 - 1900 21.7 14.9 86 18.1 20.6 NE | 51 5.1 17.9 ENE | 64 20.4 31.8 19.9
4/7/24 - 1800 27.2 22.2 37 3.4 21.5 W | 269 4.3 13.3 W | 273 21.0 31.8 19.9
4/7/24 - 1700 27.6 19.6 37 4.7 21.9 W | 260 7.8 17.3 W | 273 21.0 31.8 19.9
4/7/24 - 1600 29.0 20.7 19 -9.0 21.3 W | 264 8.8 18.7 WNW | 289 21.0 31.8 19.9
4/7/24 - 1500 28.7 21.2 17 -11.2 20.9 W | 268 7.3 18.4 WSW | 257 21.0 31.8 19.9
4/7/24 - 1400 29.5 22.3 21 -5.4 22.0 WSW | 258 7.3 19.4 W | 269 21.0 31.8 19.9
4/7/24 - 1300 29.6 22.7 19 -8.2 21.8 W | 264 6.9 19.9 W | 266 21.0 31.6 19.9
4/7/24 - 1200 28.5 24.7 27 -2.3 21.8 S | 178 3.5 15.1 W | 277 21.0 31.4 15.1
4/7/24 - 1100 27.2 23.8 37 4.2 21.6 SE | 137 3.0 8.9 SSE | 147 21.0 30.3 13.6
4/7/24 - 1000 25.7 - 36 2.1 20.2 SE | 143 2.3 7.3 SSE | 158 21.0 29.7 13.6
4/7/24 - 0900 24.8 - 31 -2.0 19.1 SE | 136 1.5 5.0 ESE | 122 21.0 27.0 13.6
4/7/24 - 0800 22.8 - 23 -10.5 16.8 WSW | 239 2.0 7.4 W | 260 21.0 25.2 13.6
4/7/24 - 0700 21.3 - 29 -6.1 16.1 NW | 309 2.4 10.4 WNW | 287 21.0 25.2 13.6
4/7/24 - 0600 22.3 - 23 -10.0 16.4 WSW | 246 2.5 13.6 W | 279 21.5 25.2 13.6
4/7/24 - 0500 23.0 17.9 21 -11.2 16.9 W | 259 3.9 12.2 W | 274 22.6 25.2 12.2
4/7/24 - 0400 23.9 - 19 -12.2 17.4 NNE | 21 2.3 9.8 W | 278 22.7 25.2 9.8
4/7/24 - 0300 24.7 - 18 -12.9 18.0 NNE | 18 1.1 4.3 N | 355 22.7 25.2 6.6
4/7/24 - 0200 24.3 - 26 -5.5 18.3 NNE | 30 1.1 6.6 ENE | 71 22.7 25.0 6.6
4/7/24 - 0100 22.9 - 35 -0.6 17.9 ENE | 60 1.6 6.2 E | 99 11.0 26.6 39.8
4/7/24 - 0000 23.5 - 28 -5.1 17.8 WNW | 282 1.2 10.1 W | 273 11.0 26.6 39.8
4/6/24 - 2300 24.6 19.8 23 -7.6 18.3 WNW | 283 3.7 13.3 WNW | 287 11.0 26.6 39.8
4/6/24 - 2200 24.4 18.3 21 -10.5 17.9 WNW | 287 4.9 14.8 WNW | 292 11.0 26.6 39.8
4/6/24 - 2100 24.6 17.5 21 -10.1 18.1 WNW | 289 5.9 15.4 WNW | 296 11.0 26.6 39.8
4/6/24 - 2000 23.4 15.1 26 -6.6 17.5 W | 279 7.0 16.9 WNW | 290 11.0 26.6 39.8
4/6/24 - 1900 23.0 13.9 24 -8.4 17.1 W | 260 8.0 25.8 W | 260 11.0 26.6 39.8
4/6/24 - 1800 24.4 15.4 20 -10.8 17.9 WSW | 257 8.2 24.6 WNW | 298 11.0 26.6 39.8
4/6/24 - 1700 24.6 14.5 24 -7.5 18.3 W | 270 10.0 28.3 W | 274 11.0 26.6 39.8
4/6/24 - 1600 24.4 11.3 25 -6.3 18.3 W | 259 16.3 39.8 WSW | 258 11.0 26.6 39.8
4/6/24 - 1500 24.6 13.9 24 -6.9 18.4 W | 264 11.3 37.7 W | 264 11.0 26.6 37.7
4/6/24 - 1400 24.5 18.7 27 -5.1 18.5 W | 278 4.6 23.9 WNW | 300 11.0 26.6 27.5
4/6/24 - 1300 24.1 16.6 25 -7.0 18.0 W | 272 6.2 27.5 WNW | 289 11.0 26.6 27.5
4/6/24 - 1200 23.7 19.0 24 -7.5 17.7 W | 274 3.6 18.6 WNW | 296 11.0 26.6 20.2
4/6/24 - 1100 23.5 16.1 22 -9.8 17.3 W | 259 5.9 20.2 W | 276 11.0 26.6 20.2
4/6/24 - 1000 23.9 - 30 -3.2 18.3 SE | 142 2.0 4.9 SSE | 165 11.0 26.6 10.6
4/6/24 - 0900 21.2 - 31 -4.6 16.2 SE | 137 1.0 4.2 SE | 140 11.0 24.2 10.6
4/6/24 - 0800 17.8 - 34 -5.8 13.5 E | 93 0.8 3.1 WNW | 287 11.0 21.2 10.6
4/6/24 - 0700 13.0 - 36 -9.2 9.5 NNE | 15 1.9 6.2 N | 7 11.0 20.3 10.6
4/6/24 - 0600 17.7 - 17 -19.7 12.4 NE | 34 2.0 7.2 NNE | 33 12.0 20.3 10.6
4/6/24 - 0500 16.8 - 25 -13.3 12.1 NNE | 24 2.2 7.8 ESE | 102 12.0 18.0 10.6
4/6/24 - 0400 16.0 - 28 -11.5 11.6 WNW | 289 2.2 10.6 W | 265 12.0 17.4 10.6
4/6/24 - 0300 15.5 - 36 -6.8 11.7 NNE | 31 1.2 5.4 WSW | 244 12.0 16.3 8.6
4/6/24 - 0200 14.0 - 46 -3.1 11.0 NNW | 343 1.3 8.6 WSW | 241 12.0 15.6 8.6
4/6/24 - 0100 10.4 0.3 56 -2.5 8.2 WNW | 284 6.2 11.6 WNW | 294 8.7 15.1 40.4
4/6/24 - 0000 11.5 1.3 56 -1.3 9.2 W | 278 6.4 14.4 WNW | 286 9.3 15.1 40.4
4/5/24 - 2300 11.9 1.0 62 1.2 9.9 W | 268 7.3 19.2 WNW | 295 9.5 15.1 40.4
4/5/24 - 2200 11.2 -0.6 72 4.0 9.8 W | 271 8.1 17.9 WSW | 250 9.5 15.1 40.4
4/5/24 - 2100 11.6 0.6 79 6.5 10.7 W | 273 7.4 19.4 WNW | 297 9.5 15.1 40.4
4/5/24 - 2000 12.0 0.6 80 7.0 11.1 W | 274 7.9 19.9 W | 266 9.5 15.1 40.4
4/5/24 - 1900 12.5 -1.7 80 7.5 11.5 W | 269 12.0 24.8 W | 280 9.5 15.1 40.4
4/5/24 - 1800 12.7 -2.8 77 6.9 11.6 W | 268 14.5 33.2 WNW | 283 9.5 15.1 40.4
4/5/24 - 1700 13.6 -2.9 71 6.1 12.1 W | 275 17.0 34.2 NW | 308 9.5 15.1 40.4
4/5/24 - 1600 12.8 -2.9 76 6.5 11.5 W | 273 14.9 40.4 W | 277 9.5 15.1 40.4
4/5/24 - 1500 13.6 -0.9 75 7.2 12.3 W | 272 12.9 34.5 NW | 314 9.5 15.1 37.3
4/5/24 - 1400 13.7 -0.7 69 5.4 12.0 W | 275 12.9 37.3 WNW | 289 9.5 15.1 37.3
4/5/24 - 1300 13.0 -1.0 73 6.0 11.6 W | 272 11.8 32.2 WNW | 286 9.5 14.3 34.4
4/5/24 - 1200 12.2 -2.4 76 6.0 11.0 W | 274 12.4 34.4 WNW | 294 9.5 14.3 34.4
4/5/24 - 1100 12.6 0.1 76 6.4 11.4 WSW | 257 9.4 25.8 W | 262 9.5 14.3 25.8
4/5/24 - 1000 11.4 3.3 81 6.6 10.5 W | 259 4.6 22.5 SW | 236 9.5 11.9 22.5
4/5/24 - 0900 11.2 4.7 77 5.4 10.1 W | 266 3.6 16.2 WNW | 286 9.5 11.6 21.1
4/5/24 - 0800 11.2 2.7 75 4.9 10.0 WSW | 256 4.9 21.1 WSW | 243 9.5 11.6 21.1
4/5/24 - 0700 10.6 4.4 79 5.5 9.7 W | 264 3.4 14.0 W | 280 9.5 11.0 18.5
4/5/24 - 0600 10.3 - 84 6.6 9.7 N | 0 1.6 8.9 W | 259 9.5 11.0 18.5
4/5/24 - 0500 10.5 - 80 5.5 9.6 SE | 126 1.6 8.2 W | 268 9.5 11.0 18.5
4/5/24 - 0400 9.9 - 82 5.4 9.2 ENE | 68 0.7 3.8 NE | 40 9.5 10.6 18.5
4/5/24 - 0300 9.9 - 78 4.3 9.0 WSW | 255 1.4 4.7 WNW | 290 9.5 10.6 18.5
4/5/24 - 0200 10.0 -0.1 76 3.9 9.0 W | 264 6.1 18.5 WNW | 299 9.5 10.6 18.5
4/5/24 - 0100 9.8 0.5 77 4.0 8.8 W | 263 5.4 15.0 W | 273 9.4 31.2 48.9
4/5/24 - 0000 9.9 1.5 80 4.8 9.0 W | 268 4.7 17.5 WNW | 296 9.4 31.2 48.9
4/4/24 - 2300 9.9 -1.8 80 5.0 9.1 W | 277 7.7 21.7 WNW | 284 9.6 31.2 48.9
4/4/24 - 2200 10.0 -0.0 80 5.2 9.2 W | 267 6.1 21.4 SW | 230 9.6 31.2 48.9
4/4/24 - 2100 10.5 -1.2 82 6.2 9.8 W | 267 7.9 33.8 SW | 216 9.7 31.2 48.9
4/4/24 - 2000 11.4 3.1 82 7.0 10.6 WSW | 249 4.8 23.2 WSW | 257 10.4 31.2 48.9
4/4/24 - 1900 10.7 2.2 84 6.8 10.0 SW | 230 4.9 22.9 W | 280 10.4 31.2 48.9
4/4/24 - 1800 10.7 -0.5 82 6.4 10.0 W | 267 7.4 35.0 WNW | 303 10.4 31.2 48.9
4/4/24 - 1700 14.4 3.4 82 10.1 13.5 WSW | 258 8.0 31.2 W | 266 11.6 31.2 48.9
4/4/24 - 1600 18.1 7.8 80 13.1 16.8 WSW | 253 8.2 29.9 SW | 216 17.3 31.2 48.9
4/4/24 - 1500 17.7 7.3 82 13.0 16.5 W | 266 8.2 30.2 W | 278 17.3 31.2 48.9
4/4/24 - 1400 20.9 9.8 83 16.5 19.6 WSW | 257 10.3 37.2 W | 278 18.0 31.2 48.9
4/4/24 - 1300 22.8 13.2 84 18.5 21.4 WSW | 252 8.7 30.1 W | 263 21.7 31.2 48.9
4/4/24 - 1200 24.2 13.2 80 19.1 22.6 W | 264 11.6 34.6 WNW | 289 23.6 31.2 48.9
4/4/24 - 1100 24.8 14.0 82 20.0 23.2 W | 266 11.5 30.6 WSW | 258 23.6 31.2 48.9
4/4/24 - 1000 26.1 16.8 82 21.5 24.5 WSW | 258 9.2 28.0 WNW | 292 25.1 31.2 48.9
4/4/24 - 0900 26.7 16.7 84 22.5 25.2 W | 261 10.8 29.6 W | 274 26.2 31.2 48.9
4/4/24 - 0800 27.7 19.0 86 24.0 26.3 WSW | 252 8.9 29.5 WNW | 303 27.2 31.2 48.9
4/4/24 - 0700 28.7 20.4 76 22.1 26.5 WSW | 240 8.6 36.7 WSW | 247 27.7 31.2 48.9
4/4/24 - 0600 29.0 20.8 78 22.9 26.9 WSW | 242 8.8 31.0 WSW | 248 27.7 31.2 48.9
4/4/24 - 0500 28.2 16.2 91 25.8 27.2 W | 259 16.4 48.9 W | 273 27.7 31.2 48.9
4/4/24 - 0400 29.0 17.5 89 26.2 27.9 WSW | 256 15.7 44.9 S | 169 28.3 31.2 44.9
4/4/24 - 0300 30.5 22.4 76 23.8 28.1 WSW | 248 9.0 27.7 WSW | 249 29.2 31.2 29.4
4/4/24 - 0200 30.0 21.8 78 23.8 27.8 WSW | 257 9.0 29.4 W | 264 29.2 30.8 29.4
4/4/24 - 0100 29.7 21.0 82 24.8 27.9 W | 267 9.7 24.6 SSW | 202 29.2 46.6 39.9
4/4/24 - 0000 31.1 23.2 70 22.5 28.1 W | 266 8.9 22.8 WSW | 253 30.0 46.6 39.9
4/3/24 - 2300 30.6 21.3 78 24.5 28.4 W | 267 11.4 26.1 WNW | 284 30.0 46.6 39.9
4/3/24 - 2200 30.4 20.3 84 26.2 28.8 W | 268 13.1 33.2 W | 275 30.2 46.6 39.9
4/3/24 - 2100 30.8 20.5 84 26.7 29.3 W | 262 13.9 39.9 WSW | 249 30.5 46.6 39.9
4/3/24 - 2000 31.7 22.1 82 26.8 29.9 WSW | 253 12.7 35.5 NNW | 331 31.2 46.6 35.5
4/3/24 - 1900 33.2 24.9 78 27.1 30.9 WSW | 254 10.7 29.3 WNW | 295 32.1 46.6 29.3
4/3/24 - 1800 34.8 28.8 76 28.1 32.2 WSW | 257 7.3 28.1 NW | 311 34.0 46.6 28.5
4/3/24 - 1700 36.2 30.8 78 30.0 33.8 W | 271 6.5 24.3 W | 266 35.4 46.6 28.5
4/3/24 - 1600 39.0 34.4 65 28.1 34.8 W | 275 6.3 24.9 NW | 304 36.6 46.6 28.5
4/3/24 - 1500 41.3 34.5 48 22.8 34.5 W | 275 11.9 28.5 WNW | 284 36.6 46.6 28.5
4/3/24 - 1400 42.4 35.8 37 18.2 33.9 W | 280 12.3 27.9 W | 281 36.6 46.6 27.9
4/3/24 - 1300 43.2 37.3 29 12.9 33.2 W | 276 10.7 26.5 WNW | 297 36.6 46.6 26.5
4/3/24 - 1200 44.4 40.1 25 11.1 33.6 W | 276 7.8 23.4 WNW | 296 36.6 46.6 23.4
4/3/24 - 1100 45.0 42.1 30 15.0 34.6 W | 266 5.4 18.6 W | 268 36.6 46.6 18.6
4/3/24 - 1000 45.1 - 29 14.3 34.6 SE | 137 1.5 8.0 W | 277 36.6 46.6 17.2
4/3/24 - 0900 44.5 - 29 14.1 34.2 ESE | 107 2.2 6.2 ENE | 66 36.6 46.4 17.2
4/3/24 - 0800 40.8 38.9 38 17.0 32.7 SW | 223 3.4 14.4 WSW | 257 36.6 43.3 17.2
4/3/24 - 0700 38.2 - 43 17.4 31.2 WSW | 240 2.0 10.4 SW | 230 36.6 40.6 17.2
4/3/24 - 0600 38.5 36.1 49 21.0 32.3 WSW | 254 3.4 13.4 WNW | 284 37.2 40.6 17.2
4/3/24 - 0500 38.0 35.6 34 11.9 29.9 WSW | 250 3.3 11.5 WSW | 241 37.2 40.6 17.2
4/3/24 - 0400 39.2 35.3 29 9.1 30.1 WSW | 248 5.2 15.0 WSW | 246 37.2 40.6 17.2
4/3/24 - 0300 38.3 34.3 48 20.3 32.0 WSW | 257 5.3 17.2 WSW | 243 37.2 40.6 17.2
4/3/24 - 0200 39.2 - 52 23.0 33.3 WNW | 292 1.5 9.6 W | 275 37.2 40.6 9.6
4/3/24 - 0100 38.8 36.5 49 21.3 32.6 W | 279 3.4 6.6 W | 264 24.6 50.0 13.4
4/3/24 - 0000 37.0 33.0 41 15.2 30.0 WNW | 282 4.8 11.5 W | 275 24.6 50.0 13.4
4/2/24 - 2300 37.3 33.1 42 16.1 30.4 WNW | 286 5.3 13.3 W | 262 24.6 50.0 13.4
4/2/24 - 2200 37.9 34.4 43 17.5 31.1 WNW | 290 4.5 13.0 W | 273 24.6 50.0 13.4
4/2/24 - 2100 39.2 36.4 38 15.8 31.4 WNW | 289 4.0 9.5 WNW | 284 24.6 50.0 13.4
4/2/24 - 2000 41.1 39.3 32 13.5 32.1 WNW | 302 3.2 9.4 WNW | 285 24.6 50.0 13.4
4/2/24 - 1900 42.0 - 33 15.1 32.9 NNW | 343 1.6 4.9 NNE | 22 24.6 50.0 13.4
4/2/24 - 1800 45.5 - 28 13.9 34.7 NE | 38 1.7 6.7 E | 90 24.6 50.0 13.4
4/2/24 - 1700 48.2 - 23 11.8 35.8 ENE | 64 2.2 9.9 E | 98 24.6 50.0 13.4
4/2/24 - 1600 47.8 - 24 12.8 35.8 ENE | 69 2.2 8.2 E | 83 24.6 49.4 13.4
4/2/24 - 1500 46.9 - 27 15.0 35.7 ENE | 69 1.8 8.1 ENE | 68 24.6 49.1 13.4
4/2/24 - 1400 45.0 - 31 16.1 34.9 ESE | 112 2.8 10.2 ESE | 109 24.6 48.2 13.4
4/2/24 - 1300 43.4 40.2 34 16.8 34.1 SE | 128 5.3 13.4 SE | 134 24.6 45.8 13.4
4/2/24 - 1200 41.4 38.4 38 17.8 33.2 SE | 131 4.5 13.1 SE | 136 24.6 43.1 13.1
4/2/24 - 1100 38.6 35.8 43 18.0 31.6 SE | 135 3.9 10.2 SE | 134 24.6 42.2 11.7
4/2/24 - 1000 37.1 33.6 46 18.0 30.7 ESE | 109 4.4 11.4 E | 101 24.6 38.6 11.7
4/2/24 - 0900 35.4 32.0 48 17.8 29.6 E | 81 4.0 11.7 NE | 46 24.6 37.2 11.7
4/2/24 - 0800 31.5 - 57 18.0 27.2 ESE | 119 0.9 4.5 ESE | 114 24.6 34.6 9.0
4/2/24 - 0700 27.2 - 67 17.5 24.2 NNE | 25 1.1 6.4 NNE | 27 24.6 29.5 9.0
4/2/24 - 0600 27.0 22.8 66 17.2 24.0 NE | 37 3.6 8.3 NE | 37 24.6 28.2 9.0
4/2/24 - 0500 27.2 23.0 65 17.0 24.1 NNE | 28 3.6 9.0 ENE | 62 24.6 28.2 9.0
4/2/24 - 0400 26.8 - 66 17.1 23.8 NE | 36 1.7 5.6 N | 10 24.6 27.8 5.6
4/2/24 - 0300 26.5 - 68 17.3 23.7 NE | 40 1.2 4.9 ENE | 66 24.6 27.8 4.9
4/2/24 - 0200 25.3 - 72 17.7 23.0 NNE | 31 1.3 4.1 ESE | 112 24.6 26.1 4.1
4/2/24 - 0100 25.5 - 71 17.5 23.0 NE | 35 1.2 4.9 NNE | 26 13.8 35.3 26.7
4/2/24 - 0000 26.4 - 67 16.8 23.5 ENE | 62 2.3 6.1 E | 101 13.8 35.3 26.7
4/1/24 - 2300 26.3 22.8 62 15.2 23.0 NE | 36 3.1 7.9 E | 98 13.8 35.3 26.7
4/1/24 - 2200 26.4 22.0 60 14.3 22.9 E | 79 3.7 11.3 E | 94 13.8 35.3 26.7
4/1/24 - 2100 28.0 22.6 57 14.6 24.0 E | 100 4.7 15.3 ESE | 117 13.8 35.3 26.7
4/1/24 - 2000 29.4 22.6 53 14.5 24.9 E | 79 6.6 23.7 ENE | 57 13.8 35.3 26.7
4/1/24 - 1900 30.9 23.1 43 11.1 25.2 ENE | 65 8.5 26.7 ENE | 76 13.8 35.3 26.7
4/1/24 - 1800 32.8 26.5 41 11.8 26.6 ENE | 68 6.9 24.0 E | 99 13.8 35.3 24.0
4/1/24 - 1700 34.1 28.3 37 10.3 27.2 E | 100 6.6 15.0 ESE | 111 13.8 35.3 16.8
4/1/24 - 1600 33.7 29.0 42 13.1 27.5 E | 80 5.1 13.8 E | 89 13.8 35.3 16.8
4/1/24 - 1500 32.8 27.1 38 9.9 26.3 E | 79 6.1 16.0 ESE | 108 13.8 34.2 16.8
4/1/24 - 1400 31.3 26.5 46 13.0 25.9 E | 97 4.8 11.5 ESE | 106 13.8 33.3 16.8
4/1/24 - 1300 30.0 26.1 51 14.0 25.2 ESE | 116 3.7 11.0 ESE | 115 13.8 32.2 16.8
4/1/24 - 1200 27.8 - 60 15.6 24.2 SSE | 149 2.6 8.3 SE | 146 13.8 30.7 16.8
4/1/24 - 1100 25.8 - 63 14.8 22.6 SE | 128 2.6 7.4 ESE | 107 13.8 28.3 16.8
4/1/24 - 1000 24.0 18.2 68 15.0 21.4 E | 88 4.5 10.7 E | 96 13.8 25.2 16.8
4/1/24 - 0900 21.5 - 76 15.0 19.6 SE | 128 2.8 11.0 ESE | 103 13.8 24.2 16.8
4/1/24 - 0800 17.7 - 89 14.9 16.9 W | 261 0.7 3.1 W | 274 13.8 20.0 16.8
4/1/24 - 0700 15.1 - 90 12.8 14.6 NNE | 26 0.3 2.5 S | 176 13.8 17.8 16.8
4/1/24 - 0600 14.6 - 90 12.3 14.1 NE | 49 - - NE | 36 14.2 17.8 16.8
4/1/24 - 0500 15.5 - 91 13.4 15.0 ENE | 78 1.4 8.6 NE | 50 14.4 17.8 16.8
4/1/24 - 0400 16.5 10.4 92 14.5 15.9 ENE | 68 3.8 16.2 ENE | 69 16.0 17.8 16.8
4/1/24 - 0300 17.6 9.5 92 15.8 17.1 ENE | 72 5.6 16.8 ENE | 65 17.3 17.8 16.8
4/1/24 - 0200 17.7 11.0 92 15.8 17.2 E | 80 4.4 11.8 ENE | 73 17.4 17.8 11.8
4/1/24 - 0100 17.8 12.7 93 16.0 17.3 E | 88 3.4 12.7 NE | 55 16.8 28.6 32.1
4/1/24 - 0000 17.9 11.6 93 16.2 17.4 E | 86 4.2 11.3 ENE | 64 16.8 28.6 32.1
3/31/24 - 2300 17.7 - 92 15.6 17.1 E | 93 1.6 4.7 ESE | 112 16.8 28.6 32.1
3/31/24 - 2200 17.1 - 88 14.1 16.3 E | 95 2.2 9.0 ESE | 104 16.8 28.6 32.1
3/31/24 - 2100 17.4 11.3 87 14.0 16.5 ENE | 69 3.9 12.5 NE | 48 17.1 28.6 32.1
3/31/24 - 2000 18.1 10.0 90 15.7 17.4 ENE | 63 5.7 18.9 NNE | 30 17.4 28.6 32.1
3/31/24 - 1900 21.0 - 92 19.0 20.3 ENE | 69 2.9 12.2 NNE | 26 17.9 28.6 32.1
3/31/24 - 1800 23.3 15.4 77 17.0 21.4 W | 276 6.5 18.4 W | 262 17.9 28.6 32.1
3/31/24 - 1700 23.4 15.3 73 16.1 21.2 WSW | 254 6.8 18.6 WSW | 258 17.9 28.6 32.1
3/31/24 - 1600 24.1 15.2 73 16.8 21.9 W | 262 8.1 23.2 WNW | 290 17.9 28.6 32.1
3/31/24 - 1500 23.6 12.4 75 16.9 21.6 W | 263 11.6 24.4 WSW | 256 17.9 28.6 32.1
3/31/24 - 1400 23.5 12.1 73 16.3 21.4 W | 263 12.0 25.3 WNW | 283 17.9 28.6 32.1
3/31/24 - 1300 26.4 16.4 62 15.1 23.1 W | 268 10.7 21.5 W | 265 17.9 28.6 32.1
3/31/24 - 1200 24.2 15.4 62 13.1 21.1 W | 268 7.9 18.4 WNW | 296 17.9 26.4 32.1
3/31/24 - 1100 22.5 13.4 66 12.7 19.8 W | 270 7.7 20.1 W | 277 17.9 24.4 32.1
3/31/24 - 1000 21.5 10.3 71 13.5 19.3 W | 268 10.6 24.3 W | 277 17.9 22.5 32.1
3/31/24 - 0900 20.7 8.7 75 13.9 18.8 W | 261 11.9 24.6 W | 275 17.9 21.4 32.1
3/31/24 - 0800 20.0 8.6 78 14.2 18.4 W | 270 10.6 25.9 W | 268 17.9 21.0 32.1
3/31/24 - 0700 19.2 9.4 76 12.8 17.5 W | 260 7.8 26.2 W | 265 17.9 19.6 32.1
3/31/24 - 0600 18.4 5.1 81 13.6 17.1 W | 261 13.1 30.5 WSW | 248 17.9 18.9 32.1
3/31/24 - 0500 18.4 8.3 78 12.7 16.9 W | 271 7.9 32.1 WSW | 244 17.9 18.9 32.1
3/31/24 - 0400 18.5 8.2 75 11.8 16.8 WSW | 254 8.2 28.8 W | 277 17.9 18.9 28.8
3/31/24 - 0300 18.5 12.3 76 12.2 16.8 SW | 232 4.1 21.2 W | 275 17.9 18.9 21.2
3/31/24 - 0200 18.0 10.4 83 13.8 16.9 WSW | 254 5.3 20.2 WNW | 287 17.9 18.3 20.2
3/31/24 - 0100 18.2 6.9 84 14.3 17.2 WSW | 253 9.7 26.6 W | 274 17.2 28.1 33.6
3/31/24 - 0000 18.4 6.9 88 15.5 17.5 WSW | 250 9.9 26.5 E | 97 17.2 28.1 33.6
3/30/24 - 2300 18.4 10.9 82 13.8 17.1 WSW | 258 5.1 20.4 WNW | 283 17.2 28.1 33.6
3/30/24 - 2200 18.8 11.5 75 12.1 17.0 WSW | 249 5.1 17.1 WNW | 282 17.2 28.1 33.6
3/30/24 - 2100 18.9 13.3 80 13.7 17.5 W | 280 3.8 12.8 W | 273 17.2 28.1 33.6
3/30/24 - 2000 18.7 11.6 80 13.7 17.4 WNW | 296 4.9 17.8 W | 280 17.2 28.1 33.6
3/30/24 - 1900 19.2 9.7 80 14.0 17.8 WNW | 282 7.5 20.1 WNW | 287 17.2 28.1 33.6
3/30/24 - 1800 19.6 9.6 81 14.7 18.2 WNW | 286 8.1 24.8 WNW | 300 17.2 28.1 33.6
3/30/24 - 1700 20.2 9.9 79 14.7 18.6 W | 276 8.7 30.7 WNW | 283 17.2 28.1 33.6
3/30/24 - 1600 22.4 14.9 73 15.2 20.3 W | 272 5.9 20.9 NW | 304 17.2 28.1 33.6
3/30/24 - 1500 23.8 18.7 70 15.2 21.3 WSW | 251 4.0 20.8 WSW | 251 17.2 28.1 33.6
3/30/24 - 1400 23.4 16.3 68 14.4 20.8 WSW | 251 5.6 17.7 W | 280 17.2 28.1 33.6
3/30/24 - 1300 25.2 - 66 15.3 22.3 SSW | 213 3.0 15.5 W | 273 17.2 28.1 33.6
3/30/24 - 1200 25.1 - 68 16.0 22.4 ESE | 103 2.4 9.5 E | 95 17.2 27.6 33.6
3/30/24 - 1100 22.0 17.6 89 19.2 21.1 ENE | 72 3.3 8.8 E | 92 17.2 25.6 33.6
3/30/24 - 1000 20.6 - 91 18.4 19.8 E | 88 1.1 6.2 NNE | 13 17.2 25.6 33.6
3/30/24 - 0900 20.9 15.8 76 13.9 19.0 SE | 146 3.6 10.4 E | 89 17.2 25.6 33.6
3/30/24 - 0800 20.0 11.0 74 12.8 18.0 WSW | 245 7.0 29.2 W | 279 17.2 22.1 33.6
3/30/24 - 0700 17.9 3.8 80 12.8 16.6 W | 263 14.5 33.6 WSW | 248 17.2 22.1 33.6
3/30/24 - 0600 19.0 8.3 82 14.4 17.7 W | 272 9.0 23.3 WNW | 283 18.3 22.1 26.6
3/30/24 - 0500 19.3 14.4 81 14.4 17.9 WSW | 249 3.3 11.8 WNW | 299 18.3 22.1 26.6
3/30/24 - 0400 19.1 10.4 83 14.7 17.9 WSW | 255 6.5 16.5 W | 264 18.3 22.1 26.6
3/30/24 - 0300 19.4 9.0 82 15.0 18.2 W | 268 8.8 21.7 WSW | 257 19.1 22.1 26.6
3/30/24 - 0200 21.2 14.2 89 18.4 20.3 W | 264 5.2 26.6 WSW | 256 19.9 22.1 26.6
3/30/24 - 0100 22.2 - 90 19.6 21.4 ENE | 72 0.7 4.1 WSW | 247 18.1 23.3 36.0
3/30/24 - 0000 22.4 - 93 20.7 21.8 NNE | 12 0.4 2.5 ENE | 70 18.1 23.3 36.0
3/29/24 - 2300 22.2 - 91 20.0 21.4 NE | 35 0.8 3.2 ENE | 73 18.1 23.3 36.0
3/29/24 - 2200 21.6 - 92 19.6 20.9 NNW | 336 1.1 3.2 NW | 315 18.1 23.3 36.0
3/29/24 - 2100 21.5 - 89 18.7 20.6 N | 9 1.6 3.7 NNE | 18 18.1 23.3 36.0
3/29/24 - 2000 21.3 - 88 18.4 20.4 NNW | 327 0.3 2.5 NW | 316 18.1 23.3 36.0
3/29/24 - 1900 21.2 - 89 18.6 20.4 WSW | 251 1.2 5.5 WSW | 252 18.1 23.3 36.0
3/29/24 - 1800 21.1 - 85 17.4 19.9 W | 264 2.7 10.9 WSW | 250 18.1 23.3 36.0
3/29/24 - 1700 21.5 17.1 80 16.2 20.0 W | 263 3.2 9.8 W | 277 18.1 23.3 36.0
3/29/24 - 1600 21.0 14.8 79 15.5 19.4 W | 261 4.4 13.8 W | 267 18.1 23.3 36.0
3/29/24 - 1500 20.5 12.5 78 14.8 18.8 W | 262 6.0 20.2 W | 267 18.1 23.3 36.0
3/29/24 - 1400 19.9 11.3 79 14.5 18.4 W | 264 6.6 22.5 WNW | 282 18.1 23.3 36.0
3/29/24 - 1300 21.3 11.5 79 15.7 19.7 WSW | 258 8.4 27.0 WSW | 255 18.1 23.3 36.0
3/29/24 - 1200 22.6 15.1 77 16.4 20.8 WSW | 251 5.9 23.8 W | 274 18.1 23.3 36.0
3/29/24 - 1100 22.4 14.3 75 15.6 20.4 W | 263 6.5 17.5 W | 274 18.1 23.1 36.0
3/29/24 - 1000 21.3 12.2 76 14.8 19.4 WSW | 256 7.5 19.5 WSW | 258 18.1 22.5 36.0
3/29/24 - 0900 20.1 9.5 81 15.2 18.7 W | 262 9.2 27.8 W | 280 18.1 21.2 36.0
3/29/24 - 0800 19.5 7.1 86 15.9 18.4 W | 270 11.8 30.4 WSW | 255 18.1 21.0 36.0
3/29/24 - 0700 18.4 6.4 88 15.4 17.6 W | 269 10.8 29.3 WNW | 287 18.1 21.0 36.0
3/29/24 - 0600 18.9 7.5 84 15.0 17.8 W | 275 9.9 27.6 W | 263 18.5 21.0 36.0
3/29/24 - 0500 18.9 6.5 83 14.7 17.7 W | 274 11.6 31.5 WNW | 287 18.6 21.0 36.0
3/29/24 - 0400 19.4 8.4 84 15.3 18.2 W | 264 9.5 36.0 NW | 314 18.8 21.0 36.0
3/29/24 - 0300 19.9 10.6 89 17.1 19.0 W | 266 7.3 24.6 W | 264 19.5 21.0 24.6
3/29/24 - 0200 20.6 12.9 91 18.4 19.9 WSW | 257 5.8 21.2 WSW | 248 20.1 21.0 21.2
3/29/24 - 0100 21.3 10.5 93 19.7 20.8 W | 268 10.0 26.4 W | 261 20.8 26.4 41.7
3/29/24 - 0000 22.7